sensor_id;sensor_type;location;lat;lon;timestamp;pressure;altitude;pressure_sealevel;temperature;humidity
11415;BME280;5763;42.714;23.244;2023-05-25T00:01:21;94534.47;;;17.65;72.42
11415;BME280;5763;42.714;23.244;2023-05-25T00:03:48;94540.47;;;17.52;72.52
11415;BME280;5763;42.714;23.244;2023-05-25T00:06:16;94533.94;;;17.45;73.33
11415;BME280;5763;42.714;23.244;2023-05-25T00:08:44;94540.97;;;17.51;73.30
11415;BME280;5763;42.714;23.244;2023-05-25T00:11:13;94537.19;;;17.43;74.12
11415;BME280;5763;42.714;23.244;2023-05-25T00:13:41;94542.47;;;17.47;74.22
11415;BME280;5763;42.714;23.244;2023-05-25T00:16:07;94546.00;;;17.52;74.68
11415;BME280;5763;42.714;23.244;2023-05-25T00:18:34;94540.97;;;17.51;74.63
11415;BME280;5763;42.714;23.244;2023-05-25T00:21:02;94536.94;;;17.47;74.26
11415;BME280;5763;42.714;23.244;2023-05-25T00:23:30;94546.25;;;17.49;73.53
11415;BME280;5763;42.714;23.244;2023-05-25T00:25:57;94546.25;;;17.44;73.44
11415;BME280;5763;42.714;23.244;2023-05-25T00:28:26;94549.75;;;17.44;73.25
11415;BME280;5763;42.714;23.244;2023-05-25T00:30:52;94548.00;;;17.47;73.53
11415;BME280;5763;42.714;23.244;2023-05-25T00:33:20;94545.00;;;17.45;74.23
11415;BME280;5763;42.714;23.244;2023-05-25T00:35:47;94542.47;;;17.47;74.48
11415;BME280;5763;42.714;23.244;2023-05-25T00:38:16;94548.25;;;17.43;75.02
11415;BME280;5763;42.714;23.244;2023-05-25T00:40:43;94540.66;;;17.38;75.32
11415;BME280;5763;42.714;23.244;2023-05-25T00:43:11;94543.91;;;17.36;75.40
11415;BME280;5763;42.714;23.244;2023-05-25T00:45:39;94544.16;;;17.33;75.75
11415;BME280;5763;42.714;23.244;2023-05-25T00:48:07;94552.16;;;17.25;76.31
11415;BME280;5763;42.714;23.244;2023-05-25T00:50:37;94546.63;;;17.25;75.94
11415;BME280;5763;42.714;23.244;2023-05-25T00:53:05;94556.19;;;17.24;75.23
11415;BME280;5763;42.714;23.244;2023-05-25T00:55:35;94561.19;;;17.20;74.11
11415;BME280;5763;42.714;23.244;2023-05-25T00:58:03;94553.88;;;17.12;73.79
11415;BME280;5763;42.714;23.244;2023-05-25T01:00:31;94550.28;;;17.00;74.14
11415;BME280;5763;42.714;23.244;2023-05-25T01:03:03;94551.72;;;16.90;74.39
11415;BME280;5763;42.714;23.244;2023-05-25T01:05:37;94549.44;;;16.83;74.38
11415;BME280;5763;42.714;23.244;2023-05-25T01:08:04;94566.75;;;16.84;74.31
11415;BME280;5763;42.714;23.244;2023-05-25T01:10:32;94563.91;;;16.67;74.97
11415;BME280;5763;42.714;23.244;2023-05-25T01:13:01;94564.34;;;16.60;75.36
11415;BME280;5763;42.714;23.244;2023-05-25T01:15:29;94561.78;;;16.52;76.12
11415;BME280;5763;42.714;23.244;2023-05-25T01:17:58;94561.50;;;16.49;76.14
11415;BME280;5763;42.714;23.244;2023-05-25T01:20:27;94569.56;;;16.53;75.67
11415;BME280;5763;42.714;23.244;2023-05-25T01:22:59;94558.72;;;16.49;75.63
11415;BME280;5763;42.714;23.244;2023-05-25T01:25:33;94560.94;;;16.40;75.85
11415;BME280;5763;42.714;23.244;2023-05-25T01:28:06;94549.53;;;16.32;76.53
11415;BME280;5763;42.714;23.244;2023-05-25T01:30:36;94545.47;;;16.28;77.22
11415;BME280;5763;42.714;23.244;2023-05-25T01:33:06;94549.25;;;16.30;77.31
11415;BME280;5763;42.714;23.244;2023-05-25T01:35:35;94546.72;;;16.27;77.08
11415;BME280;5763;42.714;23.244;2023-05-25T01:38:04;94542.69;;;16.22;77.23
11415;BME280;5763;42.714;23.244;2023-05-25T01:40:31;94541.44;;;16.23;77.35
11415;BME280;5763;42.714;23.244;2023-05-25T01:42:58;94537.78;;;16.37;77.12
11415;BME280;5763;42.714;23.244;2023-05-25T01:45:24;94545.03;;;16.35;77.37
11415;BME280;5763;42.714;23.244;2023-05-25T01:47:56;94534.47;;;16.33;76.85
11415;BME280;5763;42.714;23.244;2023-05-25T01:50:31;94535.97;;;16.29;76.99
11415;BME280;5763;42.714;23.244;2023-05-25T01:53:02;94534.94;;;16.26;77.44
11415;BME280;5763;42.714;23.244;2023-05-25T01:55:35;94534.00;;;16.35;77.52
11415;BME280;5763;42.714;23.244;2023-05-25T01:58:04;94534.72;;;16.35;76.68
11415;BME280;5763;42.714;23.244;2023-05-25T02:00:32;94537.34;;;16.44;75.97
11415;BME280;5763;42.714;23.244;2023-05-25T02:03:00;94540.41;;;16.47;75.83
11415;BME280;5763;42.714;23.244;2023-05-25T02:05:27;94532.63;;;16.50;75.56
11415;BME280;5763;42.714;23.244;2023-05-25T02:07:54;94544.19;;;16.54;76.02
11415;BME280;5763;42.714;23.244;2023-05-25T02:10:21;94548.75;;;16.58;76.12
11415;BME280;5763;42.714;23.244;2023-05-25T02:12:49;94547.28;;;16.62;76.17
11415;BME280;5763;42.714;23.244;2023-05-25T02:15:16;94550.31;;;16.64;76.09
11415;BME280;5763;42.714;23.244;2023-05-25T02:17:43;94551.28;;;16.61;76.35
11415;BME280;5763;42.714;23.244;2023-05-25T02:20:11;94553.81;;;16.59;76.38
11415;BME280;5763;42.714;23.244;2023-05-25T02:22:38;94558.50;;;16.53;76.92
11415;BME280;5763;42.714;23.244;2023-05-25T02:25:05;94557.47;;;16.50;76.87
11415;BME280;5763;42.714;23.244;2023-05-25T02:27:34;94555.94;;;16.44;77.03
11415;BME280;5763;42.714;23.244;2023-05-25T02:30:02;94559.94;;;16.43;77.61
11415;BME280;5763;42.714;23.244;2023-05-25T02:32:29;94563.94;;;16.42;77.63
11415;BME280;5763;42.714;23.244;2023-05-25T02:34:58;94564.16;;;16.38;77.50
11415;BME280;5763;42.714;23.244;2023-05-25T02:37:24;94567.88;;;16.35;77.66
11415;BME280;5763;42.714;23.244;2023-05-25T02:39:51;94571.88;;;16.34;76.65
11415;BME280;5763;42.714;23.244;2023-05-25T02:42:18;94575.38;;;16.29;76.58
11415;BME280;5763;42.714;23.244;2023-05-25T02:44:45;94573.38;;;16.30;77.20
11415;BME280;5763;42.714;23.244;2023-05-25T02:47:14;94545.81;;;16.10;77.40
11415;BME280;5763;42.714;23.244;2023-05-25T02:49:42;94585.44;;;16.32;77.23
11415;BME280;5763;42.714;23.244;2023-05-25T02:52:09;94584.91;;;16.28;77.33
11415;BME280;5763;42.714;23.244;2023-05-25T02:54:36;94591.13;;;16.23;77.87
11415;BME280;5763;42.714;23.244;2023-05-25T02:57:03;94598.44;;;16.26;77.30
11415;BME280;5763;42.714;23.244;2023-05-25T02:59:30;94590.34;;;16.23;76.50
11415;BME280;5763;42.714;23.244;2023-05-25T03:01:57;94588.59;;;16.20;76.97
11415;BME280;5763;42.714;23.244;2023-05-25T03:04:25;94596.06;;;16.14;76.95
11415;BME280;5763;42.714;23.244;2023-05-25T03:06:52;94589.94;;;16.04;77.58
11415;BME280;5763;42.714;23.244;2023-05-25T03:09:19;94603.97;;;16.01;78.06
11415;BME280;5763;42.714;23.244;2023-05-25T03:11:46;94600.28;;;16.09;77.17
11415;BME280;5763;42.714;23.244;2023-05-25T03:14:12;94594.50;;;16.07;77.76
11415;BME280;5763;42.714;23.244;2023-05-25T03:16:39;94594.56;;;16.13;77.32
11415;BME280;5763;42.714;23.244;2023-05-25T03:19:06;94599.75;;;16.05;77.44
11415;BME280;5763;42.714;23.244;2023-05-25T03:21:36;94600.50;;;16.06;78.24
11415;BME280;5763;42.714;23.244;2023-05-25T03:24:03;94595.84;;;16.17;77.87
11415;BME280;5763;42.714;23.244;2023-05-25T03:26:30;94599.38;;;16.18;77.86
11415;BME280;5763;42.714;23.244;2023-05-25T03:28:56;94593.63;;;16.21;78.04
11415;BME280;5763;42.714;23.244;2023-05-25T03:31:23;94601.63;;;16.19;78.17
11415;BME280;5763;42.714;23.244;2023-05-25T03:33:50;94601.38;;;16.17;78.05
11415;BME280;5763;42.714;23.244;2023-05-25T03:36:17;94611.72;;;16.22;77.75
11415;BME280;5763;42.714;23.244;2023-05-25T03:38:45;94607.44;;;16.21;77.86
11415;BME280;5763;42.714;23.244;2023-05-25T03:41:11;94608.47;;;16.24;77.85
11415;BME280;5763;42.714;23.244;2023-05-25T03:43:38;94611.16;;;16.18;78.33
11415;BME280;5763;42.714;23.244;2023-05-25T03:46:05;94608.41;;;16.18;78.39
11415;BME280;5763;42.714;23.244;2023-05-25T03:48:31;94606.88;;;16.17;78.53
11415;BME280;5763;42.714;23.244;2023-05-25T03:50:58;94615.00;;;16.26;78.52
11415;BME280;5763;42.714;23.244;2023-05-25T03:53:25;94615.13;;;16.37;78.33
11415;BME280;5763;42.714;23.244;2023-05-25T03:55:53;94622.94;;;16.39;78.29
11415;BME280;5763;42.714;23.244;2023-05-25T03:58:20;94614.44;;;16.42;78.55
11415;BME280;5763;42.714;23.244;2023-05-25T04:00:47;94616.00;;;16.49;78.39
11415;BME280;5763;42.714;23.244;2023-05-25T04:03:14;94610.19;;;16.47;78.30
11415;BME280;5763;42.714;23.244;2023-05-25T04:05:41;94615.31;;;16.59;78.40
11415;BME280;5763;42.714;23.244;2023-05-25T04:08:10;94630.38;;;16.58;78.42
11415;BME280;5763;42.714;23.244;2023-05-25T04:10:37;94625.13;;;16.60;78.26
11415;BME280;5763;42.714;23.244;2023-05-25T04:13:05;94636.00;;;16.69;77.51
11415;BME280;5763;42.714;23.244;2023-05-25T04:15:32;94635.84;;;16.78;77.30
11415;BME280;5763;42.714;23.244;2023-05-25T04:17:59;94634.56;;;16.79;76.64
11415;BME280;5763;42.714;23.244;2023-05-25T04:20:27;94632.66;;;16.91;76.40
11415;BME280;5763;42.714;23.244;2023-05-25T04:22:54;94634.44;;;16.94;76.32
11415;BME280;5763;42.714;23.244;2023-05-25T04:25:20;94640.25;;;17.01;76.27
11415;BME280;5763;42.714;23.244;2023-05-25T04:27:47;94646.41;;;17.16;76.31
11415;BME280;5763;42.714;23.244;2023-05-25T04:30:15;94649.47;;;17.24;76.12
11415;BME280;5763;42.714;23.244;2023-05-25T04:32:42;94641.41;;;17.20;76.24
11415;BME280;5763;42.714;23.244;2023-05-25T04:35:10;94644.28;;;17.37;75.66
11415;BME280;5763;42.714;23.244;2023-05-25T04:37:38;94654.41;;;17.46;75.65
11415;BME280;5763;42.714;23.244;2023-05-25T04:40:07;94654.69;;;17.53;76.07
11415;BME280;5763;42.714;23.244;2023-05-25T04:42:34;94656.72;;;17.58;76.45
11415;BME280;5763;42.714;23.244;2023-05-25T04:45:02;94657.50;;;17.64;76.72
11415;BME280;5763;42.714;23.244;2023-05-25T04:47:30;94661.06;;;17.70;76.82
11415;BME280;5763;42.714;23.244;2023-05-25T04:49:58;94656.81;;;17.75;76.72
11415;BME280;5763;42.714;23.244;2023-05-25T04:52:25;94652.28;;;17.72;76.88
11415;BME280;5763;42.714;23.244;2023-05-25T04:54:52;94659.16;;;17.87;76.93
11415;BME280;5763;42.714;23.244;2023-05-25T04:57:19;94648.06;;;17.87;75.57
11415;BME280;5763;42.714;23.244;2023-05-25T04:59:45;94645.53;;;17.89;74.94
11415;BME280;5763;42.714;23.244;2023-05-25T05:02:12;94641.28;;;17.93;74.24
11415;BME280;5763;42.714;23.244;2023-05-25T05:04:41;94648.09;;;17.98;73.49
11415;BME280;5763;42.714;23.244;2023-05-25T05:07:07;94641.56;;;18.01;72.92
11415;BME280;5763;42.714;23.244;2023-05-25T05:09:34;94641.06;;;18.02;72.95
11415;BME280;5763;42.714;23.244;2023-05-25T05:12:01;94639.28;;;17.99;73.54
11415;BME280;5763;42.714;23.244;2023-05-25T05:14:28;94638.31;;;18.08;73.44
11415;BME280;5763;42.714;23.244;2023-05-25T05:16:54;94651.16;;;18.11;73.58
11415;BME280;5763;42.714;23.244;2023-05-25T05:19:21;94611.81;;;17.91;74.18
11415;BME280;5763;42.714;23.244;2023-05-25T05:21:49;94649.16;;;18.12;74.45
11415;BME280;5763;42.714;23.244;2023-05-25T05:24:16;94646.91;;;18.16;74.03
11415;BME280;5763;42.714;23.244;2023-05-25T05:26:43;94637.56;;;18.18;73.96
11415;BME280;5763;42.714;23.244;2023-05-25T05:29:10;94646.41;;;18.23;74.38
11415;BME280;5763;42.714;23.244;2023-05-25T05:31:37;94654.22;;;18.24;74.18
11415;BME280;5763;42.714;23.244;2023-05-25T05:34:04;94663.53;;;18.27;74.51
11415;BME280;5763;42.714;23.244;2023-05-25T05:36:30;94654.75;;;18.34;74.86
11415;BME280;5763;42.714;23.244;2023-05-25T05:38:59;94658.81;;;18.44;74.57
11415;BME280;5763;42.714;23.244;2023-05-25T05:41:26;94662.09;;;18.48;75.14
11415;BME280;5763;42.714;23.244;2023-05-25T05:43:53;94661.84;;;18.51;75.10
11415;BME280;5763;42.714;23.244;2023-05-25T05:46:20;94667.16;;;18.60;74.99
11415;BME280;5763;42.714;23.244;2023-05-25T05:48:47;94659.38;;;18.64;75.24
11415;BME280;5763;42.714;23.244;2023-05-25T05:51:13;94655.59;;;18.73;74.40
11415;BME280;5763;42.714;23.244;2023-05-25T05:53:40;94647.50;;;18.64;74.47
11415;BME280;5763;42.714;23.244;2023-05-25T05:56:15;94661.13;;;18.73;74.49
11415;BME280;5763;42.714;23.244;2023-05-25T05:58:42;94662.91;;;18.81;73.72
11415;BME280;5763;42.714;23.244;2023-05-25T06:01:09;94666.41;;;18.82;73.77
11415;BME280;5763;42.714;23.244;2023-05-25T06:03:36;94665.66;;;18.87;73.61
11415;BME280;5763;42.714;23.244;2023-05-25T06:06:04;94663.91;;;19.00;72.23
11415;BME280;5763;42.714;23.244;2023-05-25T06:08:30;94665.41;;;19.12;72.02
11415;BME280;5763;42.714;23.244;2023-05-25T06:10:57;94663.16;;;19.16;72.85
11415;BME280;5763;42.714;23.244;2023-05-25T06:13:25;94665.16;;;19.16;72.62
11415;BME280;5763;42.714;23.244;2023-05-25T06:15:52;94666.94;;;19.19;70.49
11415;BME280;5763;42.714;23.244;2023-05-25T06:18:18;94665.41;;;19.34;69.92
11415;BME280;5763;42.714;23.244;2023-05-25T06:20:45;94657.81;;;19.46;69.18
11415;BME280;5763;42.714;23.244;2023-05-25T06:23:12;94674.44;;;19.57;69.54
11415;BME280;5763;42.714;23.244;2023-05-25T06:25:38;94670.63;;;19.71;69.46
11415;BME280;5763;42.714;23.244;2023-05-25T06:28:05;94680.94;;;19.81;69.11
11415;BME280;5763;42.714;23.244;2023-05-25T06:30:33;94675.63;;;19.89;70.46
11415;BME280;5763;42.714;23.244;2023-05-25T06:33:00;94666.78;;;19.90;71.15
11415;BME280;5763;42.714;23.244;2023-05-25T06:35:27;94685.19;;;19.99;70.43
11415;BME280;5763;42.714;23.244;2023-05-25T06:37:54;94683.94;;;19.94;70.41
11415;BME280;5763;42.714;23.244;2023-05-25T06:40:21;94682.16;;;19.97;70.61
11415;BME280;5763;42.714;23.244;2023-05-25T06:42:48;94683.91;;;20.11;70.96
11415;BME280;5763;42.714;23.244;2023-05-25T06:45:15;94690.19;;;20.17;70.33
11415;BME280;5763;42.714;23.244;2023-05-25T06:47:43;94684.88;;;20.19;70.86
11415;BME280;5763;42.714;23.244;2023-05-25T06:50:10;94690.94;;;20.23;72.11
11415;BME280;5763;42.714;23.244;2023-05-25T06:52:37;94685.06;;;20.32;70.74
11415;BME280;5763;42.714;23.244;2023-05-25T06:55:05;94694.91;;;20.38;69.56
11415;BME280;5763;42.714;23.244;2023-05-25T06:57:33;94687.13;;;20.26;70.44
11415;BME280;5763;42.714;23.244;2023-05-25T07:00:00;94684.00;;;20.46;70.29
11415;BME280;5763;42.714;23.244;2023-05-25T07:02:27;94694.06;;;20.49;70.15
11415;BME280;5763;42.714;23.244;2023-05-25T07:04:55;94683.56;;;20.71;70.02
11415;BME280;5763;42.714;23.244;2023-05-25T07:07:22;94692.63;;;20.83;69.14
11415;BME280;5763;42.714;23.244;2023-05-25T07:09:48;94685.94;;;20.97;68.27
11415;BME280;5763;42.714;23.244;2023-05-25T07:12:15;94687.41;;;21.03;67.65
11415;BME280;5763;42.714;23.244;2023-05-25T07:14:42;94686.34;;;21.12;68.16
11415;BME280;5763;42.714;23.244;2023-05-25T07:17:12;94679.41;;;21.24;67.30
11415;BME280;5763;42.714;23.244;2023-05-25T07:19:39;94681.44;;;21.23;67.32
11415;BME280;5763;42.714;23.244;2023-05-25T07:22:08;94685.31;;;21.15;67.95
11415;BME280;5763;42.714;23.244;2023-05-25T07:24:35;94686.34;;;21.12;68.38
11415;BME280;5763;42.714;23.244;2023-05-25T07:27:02;94683.34;;;21.04;68.01
11415;BME280;5763;42.714;23.244;2023-05-25T07:29:29;94694.03;;;21.00;68.42
11415;BME280;5763;42.714;23.244;2023-05-25T07:31:56;94686.63;;;21.08;68.93
11415;BME280;5763;42.714;23.244;2023-05-25T07:34:22;94691.63;;;21.15;66.26
11415;BME280;5763;42.714;23.244;2023-05-25T07:36:49;94699.94;;;21.21;63.91
11415;BME280;5763;42.714;23.244;2023-05-25T07:39:17;94699.00;;;21.13;62.64
11415;BME280;5763;42.714;23.244;2023-05-25T07:41:44;94697.13;;;20.86;62.52
11415;BME280;5763;42.714;23.244;2023-05-25T07:44:10;94696.38;;;20.91;62.84
11415;BME280;5763;42.714;23.244;2023-05-25T07:46:37;94699.81;;;21.02;63.17
11415;BME280;5763;42.714;23.244;2023-05-25T07:49:04;94690.66;;;21.13;62.31
11415;BME280;5763;42.714;23.244;2023-05-25T07:51:36;94699.22;;;21.15;62.64
11415;BME280;5763;42.714;23.244;2023-05-25T07:54:03;94698.53;;;21.09;62.67
11415;BME280;5763;42.714;23.244;2023-05-25T07:56:31;94693.59;;;20.91;62.89
11415;BME280;5763;42.714;23.244;2023-05-25T07:58:58;94693.63;;;20.80;63.29
11415;BME280;5763;42.714;23.244;2023-05-25T08:01:25;94693.91;;;20.76;61.76
11415;BME280;5763;42.714;23.244;2023-05-25T08:03:52;94700.06;;;20.64;63.18
11415;BME280;5763;42.714;23.244;2023-05-25T08:06:18;94704.63;;;20.61;64.47
11415;BME280;5763;42.714;23.244;2023-05-25T08:08:45;94713.78;;;20.51;64.54
11415;BME280;5763;42.714;23.244;2023-05-25T08:11:13;94712.31;;;20.39;66.20
11415;BME280;5763;42.714;23.244;2023-05-25T08:13:42;94722.94;;;20.35;66.20
11415;BME280;5763;42.714;23.244;2023-05-25T08:16:09;94719.72;;;20.20;67.36
11415;BME280;5763;42.714;23.244;2023-05-25T08:18:35;94730.13;;;20.14;67.48
11415;BME280;5763;42.714;23.244;2023-05-25T08:21:02;94731.38;;;20.07;67.84
11415;BME280;5763;42.714;23.244;2023-05-25T08:23:29;94745.81;;;19.95;68.22
11415;BME280;5763;42.714;23.244;2023-05-25T08:25:56;94752.91;;;19.79;68.92
11415;BME280;5763;42.714;23.244;2023-05-25T08:28:23;94743.34;;;19.64;69.55
11415;BME280;5763;42.714;23.244;2023-05-25T08:30:51;94749.66;;;19.53;69.83
11415;BME280;5763;42.714;23.244;2023-05-25T08:33:18;94746.16;;;19.47;69.80
11415;BME280;5763;42.714;23.244;2023-05-25T08:35:45;94720.16;;;19.28;69.93
11415;BME280;5763;42.714;23.244;2023-05-25T08:38:14;94747.91;;;19.45;70.23
11415;BME280;5763;42.714;23.244;2023-05-25T08:40:41;94749.94;;;19.39;71.10
11415;BME280;5763;42.714;23.244;2023-05-25T08:43:08;94753.97;;;19.27;71.15
11415;BME280;5763;42.714;23.244;2023-05-25T08:45:35;94748.16;;;19.30;71.58
11415;BME280;5763;42.714;23.244;2023-05-25T08:48:09;94749.91;;;19.28;71.84
11415;BME280;5763;42.714;23.244;2023-05-25T08:50:37;94759.22;;;19.19;72.07
11415;BME280;5763;42.714;23.244;2023-05-25T08:53:07;94763.53;;;19.15;72.32
11415;BME280;5763;42.714;23.244;2023-05-25T08:55:38;94764.53;;;19.17;71.26
11415;BME280;5763;42.714;23.244;2023-05-25T08:58:10;94759.75;;;19.12;70.62
11415;BME280;5763;42.714;23.244;2023-05-25T09:00:46;94778.66;;;19.03;70.88
11415;BME280;5763;42.714;23.244;2023-05-25T09:03:16;94777.13;;;19.02;71.71
11415;BME280;5763;42.714;23.244;2023-05-25T09:05:43;94781.41;;;18.97;72.24
11415;BME280;5763;42.714;23.244;2023-05-25T09:08:10;94778.88;;;18.99;72.37
11415;BME280;5763;42.714;23.244;2023-05-25T09:10:37;94783.69;;;19.10;72.13
11415;BME280;5763;42.714;23.244;2023-05-25T09:13:05;94783.19;;;19.06;72.85
11415;BME280;5763;42.714;23.244;2023-05-25T09:15:31;94791.00;;;19.07;72.43
11415;BME280;5763;42.714;23.244;2023-05-25T09:17:58;94776.63;;;19.09;72.74
11415;BME280;5763;42.714;23.244;2023-05-25T09:20:26;94780.41;;;19.00;74.14
11415;BME280;5763;42.714;23.244;2023-05-25T09:22:56;94782.16;;;18.92;76.16
11415;BME280;5763;42.714;23.244;2023-05-25T09:25:24;94778.91;;;19.05;78.27
11415;BME280;5763;42.714;23.244;2023-05-25T09:27:52;94780.69;;;19.08;79.17
11415;BME280;5763;42.714;23.244;2023-05-25T09:30:20;94779.91;;;19.18;79.91
11415;BME280;5763;42.714;23.244;2023-05-25T09:32:47;94773.66;;;19.29;80.01
11415;BME280;5763;42.714;23.244;2023-05-25T09:35:14;94779.44;;;19.31;81.73
11415;BME280;5763;42.714;23.244;2023-05-25T09:37:43;94782.22;;;19.31;81.69
11415;BME280;5763;42.714;23.244;2023-05-25T09:40:10;94781.72;;;19.43;81.25
11415;BME280;5763;42.714;23.244;2023-05-25T09:42:37;94781.97;;;19.40;81.57
11415;BME280;5763;42.714;23.244;2023-05-25T09:45:05;94772.38;;;19.41;80.35
11415;BME280;5763;42.714;23.244;2023-05-25T09:47:35;94776.91;;;19.49;79.53
11415;BME280;5763;42.714;23.244;2023-05-25T09:50:02;94770.38;;;19.52;77.90
11415;BME280;5763;42.714;23.244;2023-05-25T09:52:30;94759.25;;;19.58;78.08
11415;BME280;5763;42.714;23.244;2023-05-25T09:54:58;94762.78;;;19.58;79.24
11415;BME280;5763;42.714;23.244;2023-05-25T09:57:26;94761.53;;;19.65;79.49
11415;BME280;5763;42.714;23.244;2023-05-25T09:59:53;94755.72;;;19.57;81.36
11415;BME280;5763;42.714;23.244;2023-05-25T10:02:20;94761.53;;;19.65;81.95
11415;BME280;5763;42.714;23.244;2023-05-25T10:04:47;94758.22;;;19.77;81.38
11415;BME280;5763;42.714;23.244;2023-05-25T10:07:14;94746.56;;;20.01;80.18
11415;BME280;5763;42.714;23.244;2023-05-25T10:09:42;94754.63;;;20.15;79.98
11415;BME280;5763;42.714;23.244;2023-05-25T10:12:15;94748.75;;;20.30;78.37
11415;BME280;5763;42.714;23.244;2023-05-25T10:14:43;94740.91;;;20.39;77.36
11415;BME280;5763;42.714;23.244;2023-05-25T10:17:12;94739.13;;;20.36;77.51
11415;BME280;5763;42.714;23.244;2023-05-25T10:19:45;94743.94;;;20.36;77.18
11415;BME280;5763;42.714;23.244;2023-05-25T10:22:16;94734.06;;;20.40;77.92
11415;BME280;5763;42.714;23.244;2023-05-25T10:24:52;94729.78;;;20.39;75.59
11415;BME280;5763;42.714;23.244;2023-05-25T10:27:24;94725.00;;;20.34;78.63
11415;BME280;5763;42.714;23.244;2023-05-25T10:29:51;94720.47;;;20.26;77.33
11415;BME280;5763;42.714;23.244;2023-05-25T10:32:18;94724.00;;;20.32;75.50
11415;BME280;5763;42.714;23.244;2023-05-25T10:34:45;94707.84;;;20.25;75.91
11415;BME280;5763;42.714;23.244;2023-05-25T10:37:13;94711.38;;;20.20;73.23
11415;BME280;5763;42.714;23.244;2023-05-25T10:39:40;94709.59;;;20.28;72.93
11415;BME280;5763;42.714;23.244;2023-05-25T10:42:08;94708.31;;;20.29;74.93
11415;BME280;5763;42.714;23.244;2023-05-25T10:44:36;94711.59;;;20.33;76.69
11415;BME280;5763;42.714;23.244;2023-05-25T10:47:04;94701.47;;;20.41;77.34
11415;BME280;5763;42.714;23.244;2023-05-25T10:49:32;94700.19;;;20.42;72.61
11415;BME280;5763;42.714;23.244;2023-05-25T10:52:00;94701.19;;;20.44;71.27
11415;BME280;5763;42.714;23.244;2023-05-25T10:54:28;94693.59;;;20.45;69.86
11415;BME280;5763;42.714;23.244;2023-05-25T10:57:09;94691.59;;;20.40;70.52
11415;BME280;5763;42.714;23.244;2023-05-25T10:59:41;94690.84;;;20.39;70.55
11415;BME280;5763;42.714;23.244;2023-05-25T11:02:09;94680.00;;;20.36;70.02
11415;BME280;5763;42.714;23.244;2023-05-25T11:04:36;94678.19;;;20.44;68.25
11415;BME280;5763;42.714;23.244;2023-05-25T11:07:05;94679.22;;;20.41;68.24
11415;BME280;5763;42.714;23.244;2023-05-25T11:09:40;94672.41;;;20.36;69.92
11415;BME280;5763;42.714;23.244;2023-05-25T11:12:17;94678.47;;;20.35;69.08
11415;BME280;5763;42.714;23.244;2023-05-25T11:15:10;94675.25;;;20.25;68.41
11415;BME280;5763;42.714;23.244;2023-05-25T11:17:56;94678.53;;;20.29;69.39
11415;BME280;5763;42.714;23.244;2023-05-25T11:20:26;94683.84;;;20.22;70.58
11415;BME280;5763;42.714;23.244;2023-05-25T11:22:56;94672.47;;;20.20;71.20
11415;BME280;5763;42.714;23.244;2023-05-25T11:25:37;94688.63;;;20.27;70.25
11415;BME280;5763;42.714;23.244;2023-05-25T11:28:05;94676.03;;;20.20;72.54
11415;BME280;5763;42.714;23.244;2023-05-25T11:30:34;94679.31;;;20.19;71.29
11415;BME280;5763;42.714;23.244;2023-05-25T11:33:01;94683.06;;;20.27;73.11
11415;BME280;5763;42.714;23.244;2023-05-25T11:35:30;94683.84;;;20.22;74.53
11415;BME280;5763;42.714;23.244;2023-05-25T11:38:03;94678.81;;;20.20;73.77
11415;BME280;5763;42.714;23.244;2023-05-25T11:40:30;94678.81;;;20.20;70.59
11415;BME280;5763;42.714;23.244;2023-05-25T11:42:58;94671.47;;;20.23;71.14
11415;BME280;5763;42.714;23.244;2023-05-25T11:45:27;94674.97;;;20.29;73.66
11415;BME280;5763;42.714;23.244;2023-05-25T11:47:56;94673.69;;;20.35;75.00
11415;BME280;5763;42.714;23.244;2023-05-25T11:50:23;94676.66;;;20.48;75.92
11415;BME280;5763;42.714;23.244;2023-05-25T11:52:50;94673.25;;;20.61;75.83
11415;BME280;5763;42.714;23.244;2023-05-25T11:55:17;94664.09;;;20.71;76.08
11415;BME280;5763;42.714;23.244;2023-05-25T11:57:43;94680.16;;;20.95;76.74
11415;BME280;5763;42.714;23.244;2023-05-25T12:00:11;94671.41;;;21.15;71.45
11415;BME280;5763;42.714;23.244;2023-05-25T12:02:39;94674.59;;;21.24;69.10
11415;BME280;5763;42.714;23.244;2023-05-25T12:05:08;94673.88;;;21.48;69.54
11415;BME280;5763;42.714;23.244;2023-05-25T12:07:41;94664.56;;;21.69;68.28
11415;BME280;5763;42.714;23.244;2023-05-25T12:10:09;94674.00;;;22.09;63.08
11415;BME280;5763;42.714;23.244;2023-05-25T12:12:39;94669.09;;;22.57;61.52
11415;BME280;5763;42.714;23.244;2023-05-25T12:15:07;94671.94;;;22.89;61.84
11415;BME280;5763;42.714;23.244;2023-05-25T12:17:34;94667.00;;;22.95;61.65
11415;BME280;5763;42.714;23.244;2023-05-25T12:20:02;94664.84;;;22.88;60.87
11415;BME280;5763;42.714;23.244;2023-05-25T12:22:33;94630.94;;;22.47;62.46
11415;BME280;5763;42.714;23.244;2023-05-25T12:25:00;94656.78;;;22.66;63.05
11415;BME280;5763;42.714;23.244;2023-05-25T12:27:27;94648.16;;;22.51;60.34
11415;BME280;5763;42.714;23.244;2023-05-25T12:29:57;94640.28;;;22.68;61.47
11415;BME280;5763;42.714;23.244;2023-05-25T12:32:24;94634.50;;;22.97;60.08
11415;BME280;5763;42.714;23.244;2023-05-25T12:35:00;94630.66;;;23.45;59.20
11415;BME280;5763;42.714;23.244;2023-05-25T12:37:27;94627.06;;;24.02;55.58
11415;BME280;5763;42.714;23.244;2023-05-25T12:39:55;94626.34;;;24.48;54.74
11415;BME280;5763;42.714;23.244;2023-05-25T12:42:22;94613.16;;;24.69;53.94
11415;BME280;5763;42.714;23.244;2023-05-25T12:44:54;94620.78;;;25.02;52.50
11415;BME280;5763;42.714;23.244;2023-05-25T12:47:22;94623.25;;;25.26;49.39
11415;BME280;5763;42.714;23.244;2023-05-25T12:49:53;94608.16;;;25.29;47.80
11415;BME280;5763;42.714;23.244;2023-05-25T12:52:33;94602.41;;;25.14;49.58
11415;BME280;5763;42.714;23.244;2023-05-25T12:55:23;94598.47;;;25.30;49.96
11415;BME280;5763;42.714;23.244;2023-05-25T12:57:51;94588.22;;;25.32;48.37
11415;BME280;5763;42.714;23.244;2023-05-25T13:00:20;94589.97;;;25.43;47.58
11415;BME280;5763;42.714;23.244;2023-05-25T13:02:47;94598.75;;;25.67;46.23
11415;BME280;5763;42.714;23.244;2023-05-25T13:05:19;94593.28;;;25.90;43.52